메인 페이지
METAR-TAF:

METAR-TAF

공항 :

오루미예, 이란

위도: 37-32N, 경도: 045-05E, 고도: 1297m

현재 날씨관측

예보는 23분 전, 13:00시(UTC)에 발표되었습니다.
서남서8kt
온도 29°C
습도 20%
기압 1016 hPa
시정 10km 이상
고도 3600ft 상공 구름 조금
고도 17000ft 상공 구름 보통

METAR: OITR 051300Z 25008KT 9999 FEW036 SCT170 29/04 Q1016

시각: 17:53 (13:23 UTC)

예보

예보는 2 시간 8분 전, 11:15시(UTC)에 발표되었습니다.
예보 대상 시간: 05일 12시부터 06일 18시까지 (UTC)
남남동8kt
시정: 8000m
고도 4000ft 상공 구름 조금
일시적
05일 12시부터 05일 15시까지 (UTC)
남남서16kt
전환 중
06일 08시부터 06일 10시까지 (UTC)
서북서12kt
고도 3500ft 상공 구름 조금, 적란운.
고도 4000ft 상공 구름 조금
고도 10000ft 상공 구름 보통
일시적
06일 12시부터 06일 18시까지 (UTC)
18kt
시정: 4000m
고도 3500ft 상공 구름 보통, 적란운.
고도 4000ft 상공 구름 보통
고도 9000ft 상공 구름 많음
뇌우, 소나기

TAF: OITR 051115Z 0512/0618 15008KT 8000 FEW040 TEMPO 0512/0515 20016KT BECMG 0608/0610 30012KT FEW035CB FEW040 SCT100 TEMPO 0612/0618 35018KT 4000 TS SHRA SCT035CB SCT040 BKN090

4,000개 이상의 공항 관측 자료 및 예보 (METAR 및 TAF 보고).

지도상에서 검색 가능한 기상관측소가 노란 점과 빨간 점으로 표시되어 있습니다.

기상관측소 명을 보려면 표시 위로 마우스를 이동하세요.

날씨 관측과 예보를 보려면 클릭하세요.

지도 변경 : 확대하려면 엑스 표시가 있는 녹색 버튼, 축소하려면 빼기 표시가 있는 녹색 버튼, 다음 페이지의 지도를 보려면 녹색 화살표를 클릭하세요.


METAR-TAF: